Loventuel, Argentina
Current Conditions -  °F | °C
As of 2:00 PM on Monday 22 Dec 2014 (Local Time) from SAOC Reporting Station
Scattered Clouds Scattered Clouds  
Wind Chill: 21°   Ceiling: Unl
Heat Index: 21°   Visibility: 6mi
Dew Point: -1°   Wind: 6mph
Humidity: 23%   Direction: 140°SE
Pressure: 30.15"   Gusts: NA
Location:  36.2°S, 65.19°W
Report Text: SAOC 221700Z 14005KT 9999 FEW025 SCT20021/M01 Q1021
Loading
Personal Weather Stations






























Interactive Weather Map New forecast layout! Learn more

10-Day Weather Forecast

Advertisements
Track Severe Weather on mobile